createdAt,value
2022-08-26T00:02:12.782Z,15.80
2022-08-26T00:04:41.524Z,15.80
2022-08-26T00:07:10.890Z,15.70
2022-08-26T00:09:40.394Z,15.70
2022-08-26T00:12:12.361Z,15.70
2022-08-26T00:14:40.979Z,15.60
2022-08-26T00:17:10.289Z,15.60
2022-08-26T00:19:38.660Z,15.60
2022-08-26T00:22:06.998Z,15.70
2022-08-26T00:24:35.094Z,15.70
2022-08-26T00:27:03.109Z,15.60
2022-08-26T00:29:34.890Z,15.50
2022-08-26T00:32:06.272Z,15.40
2022-08-26T00:34:35.078Z,15.30
2022-08-26T00:37:03.511Z,15.30
2022-08-26T00:39:32.277Z,15.40
2022-08-26T00:42:00.569Z,15.50
2022-08-26T00:44:28.457Z,15.50
2022-08-26T00:47:01.429Z,15.50
2022-08-26T00:49:44.656Z,15.50
2022-08-26T00:52:19.875Z,15.40
2022-08-26T00:55:34.515Z,15.30
2022-08-26T00:58:08.433Z,15.20
2022-08-26T01:00:36.712Z,15.20
2022-08-26T01:03:05.221Z,15.10
2022-08-26T01:05:33.559Z,15.10
2022-08-26T01:08:01.905Z,15.10
2022-08-26T01:10:31.800Z,15.10
2022-08-26T01:13:02.934Z,15.00
2022-08-26T01:15:44.829Z,15.00
2022-08-26T01:18:13.346Z,15.00
2022-08-26T01:21:20.690Z,14.90
2022-08-26T01:23:52.042Z,14.90
2022-08-26T01:26:29.682Z,15.00
2022-08-26T01:29:00.215Z,15.00
2022-08-26T01:31:35.072Z,15.00
2022-08-26T01:34:27.672Z,15.00
2022-08-26T01:37:04.815Z,15.10
2022-08-26T01:39:35.383Z,15.10
2022-08-26T01:42:05.731Z,15.00
2022-08-26T01:44:45.006Z,15.00
2022-08-26T01:47:18.097Z,15.00
2022-08-26T01:49:50.858Z,15.00
2022-08-26T01:52:28.450Z,15.10
2022-08-26T01:54:58.982Z,14.90
2022-08-26T01:57:28.842Z,14.90
2022-08-26T02:00:01.835Z,14.80
2022-08-26T02:02:43.050Z,14.70
2022-08-26T02:05:16.890Z,14.70
2022-08-26T02:07:45.299Z,14.60
2022-08-26T02:10:14.928Z,14.60
2022-08-26T02:12:43.088Z,14.60
2022-08-26T02:15:12.441Z,14.60
2022-08-26T02:17:45.894Z,14.50
2022-08-26T02:20:17.785Z,14.50
2022-08-26T02:22:47.457Z,14.50
2022-08-26T02:25:33.915Z,14.50
2022-08-26T02:28:02.236Z,14.50
2022-08-26T02:30:33.321Z,14.60
2022-08-26T02:33:03.744Z,14.70
2022-08-26T02:35:33.535Z,14.70
2022-08-26T02:38:03.790Z,14.80
2022-08-26T02:40:40.981Z,14.80
2022-08-26T02:43:09.788Z,14.80
2022-08-26T02:45:38.109Z,14.90
2022-08-26T02:48:18.784Z,14.90
2022-08-26T02:50:48.717Z,14.90
2022-08-26T02:53:18.471Z,14.90
2022-08-26T02:55:53.005Z,14.90
2022-08-26T02:58:20.843Z,14.80
2022-08-26T03:00:53.050Z,14.70
2022-08-26T03:03:23.711Z,14.60
2022-08-26T03:05:53.708Z,14.50
2022-08-26T03:08:22.474Z,14.50
2022-08-26T03:10:51.064Z,14.40
2022-08-26T03:13:19.055Z,14.30
2022-08-26T03:15:47.660Z,14.30
2022-08-26T03:18:15.000Z,14.40
2022-08-26T03:20:43.990Z,14.40
2022-08-26T03:23:12.778Z,14.30
2022-08-26T03:25:40.617Z,14.40
2022-08-26T03:28:09.711Z,14.50
2022-08-26T03:30:45.248Z,14.50
2022-08-26T03:33:14.596Z,14.50
2022-08-26T03:35:44.385Z,14.50
2022-08-26T03:38:12.838Z,14.50
2022-08-26T03:40:42.781Z,14.60
2022-08-26T03:43:15.973Z,14.70
2022-08-26T03:45:45.970Z,14.70
2022-08-26T03:48:14.369Z,14.70
2022-08-26T03:50:42.428Z,14.70
2022-08-26T03:53:12.681Z,14.70
2022-08-26T03:55:43.166Z,14.50
2022-08-26T03:58:11.743Z,14.40
2022-08-26T04:00:39.768Z,14.40
2022-08-26T04:03:10.084Z,14.30
2022-08-26T04:05:38.588Z,14.20
2022-08-26T04:08:06.960Z,14.10
2022-08-26T04:10:38.332Z,14.10
2022-08-26T04:13:06.646Z,14.10
2022-08-26T04:15:34.582Z,14.10
2022-08-26T04:18:02.328Z,14.00
2022-08-26T04:20:31.321Z,14.00
2022-08-26T04:22:59.337Z,14.10
2022-08-26T04:25:27.608Z,14.10
2022-08-26T04:27:56.846Z,14.20
2022-08-26T04:30:26.492Z,14.30
2022-08-26T04:32:54.809Z,14.40
2022-08-26T04:35:25.980Z,14.40
2022-08-26T04:37:54.326Z,14.50
2022-08-26T04:40:23.449Z,14.50
2022-08-26T04:42:51.615Z,14.60
2022-08-26T04:45:22.930Z,14.70
2022-08-26T04:47:56.465Z,14.70
2022-08-26T04:50:25.833Z,14.70
2022-08-26T04:52:55.436Z,14.80
2022-08-26T04:55:38.715Z,14.80
2022-08-26T04:58:11.016Z,14.80
2022-08-26T05:00:38.883Z,14.90
2022-08-26T05:03:10.513Z,14.90
2022-08-26T05:05:41.347Z,14.90
2022-08-26T05:08:11.292Z,14.90
2022-08-26T05:10:48.702Z,15.00
2022-08-26T05:13:20.604Z,15.10
2022-08-26T05:15:49.733Z,15.10
2022-08-26T05:18:20.005Z,15.20
2022-08-26T05:20:54.934Z,15.30
2022-08-26T05:23:24.292Z,15.40
2022-08-26T05:25:58.928Z,15.60
2022-08-26T05:28:30.009Z,15.70
2022-08-26T05:30:57.923Z,15.80
2022-08-26T05:33:26.362Z,15.90
2022-08-26T05:35:54.790Z,16.00
2022-08-26T05:38:23.799Z,16.20
2022-08-26T05:40:53.259Z,16.30
2022-08-26T05:43:21.963Z,16.40
2022-08-26T05:45:50.826Z,16.60
2022-08-26T05:48:22.774Z,16.70
2022-08-26T05:50:53.640Z,16.70
2022-08-26T05:53:24.002Z,16.90
2022-08-26T05:55:56.373Z,17.10
2022-08-26T05:58:27.306Z,17.40
2022-08-26T06:01:02.187Z,17.60
2022-08-26T06:03:33.326Z,17.70
2022-08-26T06:06:09.512Z,17.90
2022-08-26T06:08:38.963Z,18.10
2022-08-26T06:11:10.763Z,18.20
2022-08-26T06:13:47.525Z,18.20
2022-08-26T06:16:20.987Z,18.30
2022-08-26T06:18:50.960Z,18.40
2022-08-26T06:21:23.748Z,18.50
2022-08-26T06:24:13.116Z,18.60
2022-08-26T06:26:42.992Z,18.60
2022-08-26T06:29:15.550Z,18.60
2022-08-26T06:31:58.010Z,18.60
2022-08-26T06:34:30.278Z,18.80
2022-08-26T06:37:02.796Z,19.10
2022-08-26T06:39:32.102Z,19.00
2022-08-26T06:42:00.832Z,19.10
2022-08-26T06:44:34.847Z,19.10
2022-08-26T06:47:03.122Z,19.10
2022-08-26T06:49:31.015Z,19.10
2022-08-26T06:51:59.989Z,19.10
2022-08-26T06:54:31.619Z,19.30
2022-08-26T06:57:01.323Z,19.50
2022-08-26T06:59:31.153Z,19.60
2022-08-26T07:01:59.167Z,19.70
2022-08-26T07:04:28.036Z,19.80
2022-08-26T07:06:56.526Z,20.00
2022-08-26T07:09:27.770Z,20.20
2022-08-26T07:11:56.632Z,20.50
2022-08-26T07:14:26.197Z,20.60
2022-08-26T07:16:55.034Z,20.70
2022-08-26T07:19:31.210Z,20.80
2022-08-26T07:22:04.699Z,20.90
2022-08-26T07:24:35.785Z,21.00
2022-08-26T07:27:07.460Z,21.30
2022-08-26T07:29:39.332Z,21.30
2022-08-26T07:32:08.187Z,21.40
2022-08-26T07:34:39.872Z,21.40
2022-08-26T07:37:10.144Z,21.50
2022-08-26T07:39:40.394Z,21.70
2022-08-26T07:42:13.319Z,21.90
2022-08-26T07:44:43.127Z,22.20
2022-08-26T07:47:25.004Z,22.50
2022-08-26T07:49:54.952Z,22.70
2022-08-26T07:52:26.568Z,23.00
2022-08-26T07:54:59.793Z,23.30
2022-08-26T07:57:29.414Z,23.30
2022-08-26T07:59:57.149Z,23.40
2022-08-26T08:02:27.371Z,23.50
2022-08-26T08:04:56.856Z,23.40
2022-08-26T08:07:25.732Z,23.40
2022-08-26T08:10:18.883Z,23.60
2022-08-26T08:12:48.429Z,23.80
2022-08-26T08:15:18.219Z,23.90
2022-08-26T08:17:46.980Z,24.00
2022-08-26T08:20:18.361Z,24.20
2022-08-26T08:22:46.676Z,24.60
2022-08-26T08:25:15.685Z,24.80
2022-08-26T08:27:48.623Z,25.30
2022-08-26T08:30:22.880Z,26.00
2022-08-26T08:32:52.346Z,26.70
2022-08-26T08:35:22.541Z,27.60
2022-08-26T08:37:54.336Z,28.30
2022-08-26T08:40:25.499Z,29.30
2022-08-26T08:43:09.868Z,29.80
2022-08-26T08:45:47.370Z,30.30
2022-08-26T08:48:38.981Z,30.30
2022-08-26T08:51:26.728Z,31.10
2022-08-26T08:53:55.641Z,31.90
2022-08-26T08:56:33.373Z,31.80
2022-08-26T08:59:06.651Z,31.70
2022-08-26T09:01:58.605Z,31.20
2022-08-26T09:04:49.057Z,31.00
2022-08-26T09:07:27.646Z,31.10
2022-08-26T09:10:00.585Z,30.40
2022-08-26T09:12:34.829Z,30.20
2022-08-26T09:15:25.460Z,29.80
2022-08-26T09:18:05.642Z,30.20
2022-08-26T09:20:50.462Z,31.10
2022-08-26T09:23:19.130Z,31.60
2022-08-26T09:25:59.715Z,31.60
2022-08-26T09:28:29.185Z,31.60
2022-08-26T09:31:25.127Z,31.90
2022-08-26T09:34:17.966Z,32.30
2022-08-26T09:36:49.030Z,33.00
2022-08-26T09:39:27.984Z,33.20
2022-08-26T09:42:11.838Z,32.50
2022-08-26T09:45:04.309Z,32.40
2022-08-26T09:47:38.767Z,32.30
2022-08-26T09:50:28.942Z,32.40
2022-08-26T09:53:17.230Z,32.90
2022-08-26T09:55:51.280Z,33.20
2022-08-26T09:58:39.730Z,33.30
2022-08-26T10:01:23.446Z,32.80
2022-08-26T10:03:51.787Z,32.50
2022-08-26T10:06:21.105Z,32.00
2022-08-26T10:08:54.343Z,31.40
2022-08-26T10:11:47.992Z,31.10
2022-08-26T10:14:25.256Z,31.20
2022-08-26T10:17:39.807Z,31.30
2022-08-26T10:20:23.262Z,31.20
2022-08-26T10:23:00.945Z,30.90
2022-08-26T10:25:47.251Z,30.60
2022-08-26T10:28:25.512Z,30.30
2022-08-26T10:31:19.845Z,30.20
2022-08-26T10:33:47.995Z,29.70
2022-08-26T10:36:52.409Z,29.90
2022-08-26T10:39:59.004Z,30.40
2022-08-26T10:42:41.812Z,31.70
2022-08-26T10:45:15.149Z,32.30
2022-08-26T10:47:57.475Z,32.50
2022-08-26T10:50:32.332Z,33.40
2022-08-26T10:53:07.510Z,34.70
2022-08-26T10:55:57.670Z,35.10
2022-08-26T10:58:49.321Z,34.80
2022-08-26T11:01:47.139Z,35.40
2022-08-26T11:04:55.053Z,36.90
2022-08-26T11:07:31.891Z,38.00
2022-08-26T11:10:06.998Z,38.80
2022-08-26T11:12:37.334Z,38.90
2022-08-26T11:15:29.535Z,37.80
2022-08-26T11:18:07.535Z,36.40
2022-08-26T11:20:41.877Z,35.60
2022-08-26T11:23:12.022Z,34.50
2022-08-26T11:26:09.605Z,33.20
2022-08-26T11:28:48.068Z,32.30
2022-08-26T11:31:27.062Z,30.70
2022-08-26T11:34:00.340Z,30.10
2022-08-26T11:36:46.653Z,30.10
2022-08-26T11:39:57.236Z,29.50
2022-08-26T11:42:47.051Z,29.50
2022-08-26T11:45:34.267Z,31.10
2022-08-26T11:48:21.516Z,32.20
2022-08-26T11:51:05.532Z,32.90
2022-08-26T11:53:37.752Z,34.40
2022-08-26T11:56:12.035Z,35.90
2022-08-26T11:58:47.761Z,36.60
2022-08-26T12:01:35.818Z,36.00
2022-08-26T12:04:11.317Z,35.90
2022-08-26T12:06:47.008Z,35.40
2022-08-26T12:09:25.123Z,35.30
2022-08-26T12:11:54.146Z,34.90
2022-08-26T12:14:27.680Z,35.30
2022-08-26T12:16:55.190Z,36.20
2022-08-26T12:19:33.943Z,35.90
2022-08-26T12:22:15.087Z,35.80
2022-08-26T12:24:52.647Z,35.70
2022-08-26T12:27:45.511Z,36.40
2022-08-26T12:30:26.262Z,36.30
2022-08-26T12:33:22.310Z,35.90
2022-08-26T12:35:56.660Z,35.00
2022-08-26T12:38:26.199Z,35.00
2022-08-26T12:40:55.063Z,35.60
2022-08-26T12:43:39.643Z,37.00
2022-08-26T12:46:13.370Z,38.20
2022-08-26T12:48:44.648Z,39.40
2022-08-26T12:51:26.215Z,39.50
2022-08-26T12:53:54.853Z,38.40
2022-08-26T12:56:32.494Z,38.00
2022-08-26T12:59:26.913Z,38.50
2022-08-26T13:01:54.465Z,37.70
2022-08-26T13:04:42.770Z,37.80
2022-08-26T13:07:28.065Z,37.20
2022-08-26T13:09:58.473Z,37.90
2022-08-26T13:12:29.083Z,38.70
2022-08-26T13:14:59.083Z,38.80
2022-08-26T13:17:28.585Z,38.20
2022-08-26T13:20:01.260Z,38.00
2022-08-26T13:22:31.906Z,37.90
2022-08-26T13:24:59.364Z,37.50
2022-08-26T13:27:27.671Z,37.40
2022-08-26T13:29:57.652Z,37.40
2022-08-26T13:32:27.213Z,36.10
2022-08-26T13:34:57.147Z,35.80
2022-08-26T13:37:34.515Z,36.30
2022-08-26T13:40:07.476Z,37.10
2022-08-26T13:42:35.187Z,37.50
2022-08-26T13:45:04.404Z,37.30
2022-08-26T13:47:32.353Z,36.90
2022-08-26T13:50:00.374Z,37.00
2022-08-26T13:52:30.785Z,36.60
2022-08-26T13:55:00.588Z,36.20
2022-08-26T13:57:30.162Z,35.50
2022-08-26T13:59:59.390Z,35.50
2022-08-26T14:02:28.127Z,35.60
2022-08-26T14:04:56.479Z,35.50
2022-08-26T14:07:26.228Z,35.80
2022-08-26T14:09:54.432Z,36.00
2022-08-26T14:12:22.210Z,35.80
2022-08-26T14:14:51.136Z,35.90
2022-08-26T14:17:21.339Z,36.10
2022-08-26T14:19:50.409Z,35.70
2022-08-26T14:22:21.112Z,35.20
2022-08-26T14:24:49.254Z,34.80
2022-08-26T14:27:17.169Z,34.50
2022-08-26T14:29:45.229Z,34.80
2022-08-26T14:32:25.164Z,34.80
2022-08-26T14:34:52.822Z,33.80
2022-08-26T14:37:21.702Z,33.40
2022-08-26T14:39:49.425Z,33.30
2022-08-26T14:42:23.599Z,32.80
2022-08-26T14:44:56.010Z,31.80
2022-08-26T14:47:24.376Z,31.40
2022-08-26T14:49:52.276Z,31.00
2022-08-26T14:52:21.679Z,31.00
2022-08-26T14:54:49.263Z,30.90
2022-08-26T14:57:23.335Z,30.60
2022-08-26T14:59:50.630Z,30.20
2022-08-26T15:02:32.820Z,29.70
2022-08-26T15:05:02.669Z,29.40
2022-08-26T15:07:30.957Z,29.30
2022-08-26T15:09:58.129Z,29.10
2022-08-26T15:12:27.751Z,29.10
2022-08-26T15:14:55.165Z,29.10
2022-08-26T15:17:23.440Z,29.10
2022-08-26T15:19:51.658Z,29.00
2022-08-26T15:22:19.760Z,29.00
2022-08-26T15:24:47.223Z,28.90
2022-08-26T15:27:19.416Z,28.80
2022-08-26T15:29:47.589Z,28.80
2022-08-26T15:32:15.274Z,28.70
2022-08-26T15:34:43.862Z,28.40
2022-08-26T15:37:11.306Z,28.20
2022-08-26T15:39:39.379Z,28.10
2022-08-26T15:42:06.336Z,27.90
2022-08-26T15:44:37.478Z,27.70
2022-08-26T15:47:05.456Z,27.50
2022-08-26T15:49:33.759Z,27.30
2022-08-26T15:52:02.763Z,27.20
2022-08-26T15:54:33.096Z,27.30
2022-08-26T15:57:02.476Z,27.20
2022-08-26T15:59:33.485Z,27.20
2022-08-26T16:02:02.319Z,27.10
2022-08-26T16:04:29.275Z,27.10
2022-08-26T16:06:57.448Z,27.20
2022-08-26T16:09:27.180Z,27.10
2022-08-26T16:11:55.782Z,26.80
2022-08-26T16:14:24.391Z,26.80
2022-08-26T16:16:51.241Z,26.80
2022-08-26T16:19:19.695Z,26.70
2022-08-26T16:21:48.185Z,26.50
2022-08-26T16:24:18.042Z,26.40
2022-08-26T16:26:45.507Z,26.40
2022-08-26T16:29:15.761Z,26.30
2022-08-26T16:31:43.511Z,26.30
2022-08-26T16:34:11.647Z,26.30
2022-08-26T16:36:40.201Z,26.10
2022-08-26T16:39:09.508Z,26.10
2022-08-26T16:41:37.471Z,25.90
2022-08-26T16:44:07.509Z,25.70
2022-08-26T16:46:35.748Z,25.60
2022-08-26T16:49:04.639Z,25.50
2022-08-26T16:51:32.711Z,25.40
2022-08-26T16:54:06.057Z,25.30
2022-08-26T16:56:35.067Z,25.30
2022-08-26T16:59:11.015Z,25.30
2022-08-26T17:01:38.670Z,25.30
2022-08-26T17:04:07.106Z,25.20
2022-08-26T17:06:34.417Z,25.10
2022-08-26T17:09:02.507Z,25.20
2022-08-26T17:11:30.612Z,25.20
2022-08-26T17:13:59.571Z,25.30
2022-08-26T17:16:27.552Z,25.40
2022-08-26T17:18:57.216Z,25.50
2022-08-26T17:21:26.622Z,25.60
2022-08-26T17:23:55.421Z,25.70
2022-08-26T17:26:22.596Z,25.80
2022-08-26T17:28:50.859Z,25.60
2022-08-26T17:31:20.274Z,25.50
2022-08-26T17:33:53.487Z,25.50
2022-08-26T17:36:23.246Z,25.50
2022-08-26T17:38:56.595Z,25.30
2022-08-26T17:41:25.357Z,25.00
2022-08-26T17:43:55.652Z,24.90
2022-08-26T17:46:24.305Z,24.70
2022-08-26T17:48:53.326Z,24.60
2022-08-26T17:51:22.123Z,24.30
2022-08-26T17:53:50.392Z,24.10
2022-08-26T17:56:25.668Z,23.90
2022-08-26T17:58:56.917Z,23.90
2022-08-26T18:01:27.585Z,23.70
2022-08-26T18:04:00.240Z,23.60
2022-08-26T18:06:30.692Z,23.50
2022-08-26T18:08:59.718Z,23.50
2022-08-26T18:11:28.827Z,23.30
2022-08-26T18:13:57.067Z,23.20
2022-08-26T18:16:24.722Z,23.20
2022-08-26T18:18:54.395Z,23.10
2022-08-26T18:21:27.434Z,23.10
2022-08-26T18:23:55.847Z,23.00
2022-08-26T18:26:32.716Z,22.90
2022-08-26T18:29:02.021Z,22.80
2022-08-26T18:31:30.578Z,22.80
2022-08-26T18:34:02.151Z,22.70
2022-08-26T18:36:33.483Z,22.70
2022-08-26T18:39:01.871Z,22.70
2022-08-26T18:41:31.734Z,22.60
2022-08-26T18:44:00.228Z,22.60
2022-08-26T18:46:29.222Z,22.60
2022-08-26T18:48:57.461Z,22.50
2022-08-26T18:51:29.563Z,22.50
2022-08-26T18:53:58.076Z,22.40
2022-08-26T18:56:26.982Z,22.40
2022-08-26T18:58:54.347Z,22.30
2022-08-26T19:01:27.215Z,22.20
2022-08-26T19:04:00.269Z,22.10
2022-08-26T19:06:31.623Z,22.00
2022-08-26T19:09:00.171Z,21.80
2022-08-26T19:11:31.618Z,21.80
2022-08-26T19:14:02.065Z,21.70
2022-08-26T19:16:30.316Z,21.50
2022-08-26T19:18:58.395Z,21.40
2022-08-26T19:21:25.673Z,21.30
2022-08-26T19:23:58.497Z,21.10
2022-08-26T19:26:26.783Z,21.00
2022-08-26T19:28:54.322Z,20.90
2022-08-26T19:31:21.527Z,20.80
2022-08-26T19:33:49.560Z,20.70
2022-08-26T19:36:21.934Z,20.60
2022-08-26T19:38:50.252Z,20.50
2022-08-26T19:41:26.543Z,20.40
2022-08-26T19:44:02.276Z,20.30
2022-08-26T19:46:32.339Z,20.20
2022-08-26T19:48:59.481Z,20.10
2022-08-26T19:51:34.273Z,20.00
2022-08-26T19:54:02.228Z,19.90
2022-08-26T19:56:31.878Z,19.80
2022-08-26T19:58:59.532Z,19.80
2022-08-26T20:01:27.460Z,19.70
2022-08-26T20:06:22.424Z,19.40
2022-08-26T20:08:50.902Z,19.30
2022-08-26T20:11:21.897Z,19.30
2022-08-26T20:13:49.642Z,19.30
2022-08-26T20:16:18.477Z,19.20
2022-08-26T20:19:04.938Z,19.20
2022-08-26T20:21:35.643Z,19.00
2022-08-26T20:24:12.573Z,19.00
2022-08-26T20:26:41.291Z,18.90
2022-08-26T20:29:11.632Z,18.90
2022-08-26T20:31:39.880Z,18.90
2022-08-26T20:34:08.389Z,18.80
2022-08-26T20:36:37.481Z,18.80
2022-08-26T20:39:05.091Z,18.80
2022-08-26T20:41:33.667Z,18.90
2022-08-26T20:44:02.222Z,18.80
2022-08-26T20:46:31.083Z,18.90
2022-08-26T20:48:58.445Z,19.00
2022-08-26T20:51:27.135Z,19.00
2022-08-26T20:53:54.790Z,19.00
2022-08-26T20:56:26.501Z,19.00
2022-08-26T20:58:55.773Z,18.90
2022-08-26T21:01:26.673Z,18.90
2022-08-26T21:03:56.904Z,18.90
2022-08-26T21:06:24.944Z,18.90
2022-08-26T21:08:52.972Z,18.80
2022-08-26T21:11:22.353Z,18.80
2022-08-26T21:14:15.892Z,18.70
2022-08-26T21:16:39.543Z,18.70
2022-08-26T21:19:09.323Z,18.70
2022-08-26T21:21:37.619Z,18.70
2022-08-26T21:24:05.429Z,18.60
2022-08-26T21:26:33.631Z,18.60
2022-08-26T21:29:02.375Z,18.60
2022-08-26T21:31:32.046Z,18.60
2022-08-26T21:33:59.941Z,18.60
2022-08-26T21:36:28.340Z,18.60
2022-08-26T21:38:57.271Z,18.70
2022-08-26T21:41:26.778Z,18.70
2022-08-26T21:43:59.287Z,18.70
2022-08-26T21:46:29.579Z,18.80
2022-08-26T21:49:00.181Z,18.90
2022-08-26T21:51:32.817Z,19.00
2022-08-26T21:54:02.362Z,19.10
2022-08-26T21:56:33.483Z,19.10
2022-08-26T21:59:00.974Z,19.20
2022-08-26T22:01:34.735Z,19.20
2022-08-26T22:04:04.334Z,19.20
2022-08-26T22:06:34.245Z,19.20
2022-08-26T22:09:01.668Z,19.10
2022-08-26T22:11:31.332Z,19.10
2022-08-26T22:13:59.432Z,19.10
2022-08-26T22:16:28.659Z,19.10
2022-08-26T22:18:56.680Z,19.10
2022-08-26T22:21:28.058Z,19.20
2022-08-26T22:23:58.373Z,19.20
2022-08-26T22:26:29.742Z,19.20
2022-08-26T22:28:59.522Z,19.20
2022-08-26T22:31:38.312Z,19.20
2022-08-26T22:34:08.818Z,19.10
2022-08-26T22:36:42.938Z,19.10
2022-08-26T22:39:14.550Z,19.00
2022-08-26T22:41:44.964Z,19.00
2022-08-26T22:44:12.797Z,19.00
2022-08-26T22:46:42.008Z,18.90
2022-08-26T22:49:12.518Z,18.90
2022-08-26T22:51:40.466Z,18.90
2022-08-26T22:54:07.642Z,18.80
2022-08-26T22:56:36.012Z,18.90
2022-08-26T22:59:05.493Z,18.90
2022-08-26T23:01:35.712Z,18.90
2022-08-26T23:04:05.240Z,19.00
2022-08-26T23:06:41.549Z,19.00
2022-08-26T23:09:10.343Z,19.00
2022-08-26T23:11:39.775Z,19.00
2022-08-26T23:14:11.091Z,19.00
2022-08-26T23:16:41.601Z,19.00
2022-08-26T23:19:11.824Z,19.00
2022-08-26T23:21:40.418Z,19.00
2022-08-26T23:24:09.300Z,19.00
2022-08-26T23:26:39.101Z,18.90
2022-08-26T23:29:08.485Z,18.90
2022-08-26T23:31:38.444Z,18.90
2022-08-26T23:34:24.469Z,18.90
2022-08-26T23:36:53.865Z,18.90
2022-08-26T23:39:21.571Z,19.00
2022-08-26T23:41:49.900Z,19.00
2022-08-26T23:44:18.005Z,19.00
2022-08-26T23:46:46.191Z,19.00
2022-08-26T23:49:13.554Z,18.90
2022-08-26T23:52:00.385Z,18.90
2022-08-26T23:54:27.705Z,19.00
2022-08-26T23:56:55.712Z,18.90
2022-08-26T23:59:23.669Z,18.90
